createdAt,value
2022-08-25T00:00:54.118Z,9.8
2022-08-25T00:01:54.145Z,9.8
2022-08-25T00:02:56.036Z,9.7
2022-08-25T00:03:54.114Z,9.8
2022-08-25T00:04:54.122Z,9.7
2022-08-25T00:05:54.191Z,9.7
2022-08-25T00:06:54.116Z,9.7
2022-08-25T00:07:54.122Z,9.7
2022-08-25T00:08:54.120Z,9.7
2022-08-25T00:09:54.109Z,9.8
2022-08-25T00:11:03.408Z,9.8
2022-08-25T00:11:54.120Z,9.7
2022-08-25T00:12:54.128Z,9.8
2022-08-25T00:13:54.160Z,9.7
2022-08-25T00:14:54.121Z,9.8
2022-08-25T00:15:54.209Z,9.8
2022-08-25T00:16:56.134Z,9.8
2022-08-25T00:17:54.132Z,9.7
2022-08-25T00:18:54.185Z,9.7
2022-08-25T00:19:54.130Z,9.7
2022-08-25T00:20:54.147Z,9.7
2022-08-25T00:21:54.134Z,9.8
2022-08-25T00:22:54.127Z,9.8
2022-08-25T00:23:54.138Z,9.8
2022-08-25T00:24:54.134Z,9.8
2022-08-25T00:25:54.122Z,9.8
2022-08-25T00:26:54.150Z,9.8
2022-08-25T00:27:54.122Z,9.8
2022-08-25T00:28:54.199Z,9.8
2022-08-25T00:29:54.146Z,9.7
2022-08-25T00:30:54.210Z,9.6
2022-08-25T00:31:54.130Z,9.7
2022-08-25T00:32:57.185Z,9.6
2022-08-25T00:33:54.124Z,9.8
2022-08-25T00:34:54.124Z,9.7
2022-08-25T00:35:54.138Z,9.7
2022-08-25T00:36:54.151Z,9.7
2022-08-25T00:37:54.133Z,9.7
2022-08-25T00:38:54.141Z,9.7
2022-08-25T00:39:54.227Z,9.7
2022-08-25T00:40:54.166Z,9.7
2022-08-25T00:41:54.171Z,9.7
2022-08-25T00:42:54.132Z,9.7
2022-08-25T00:43:54.149Z,9.7
2022-08-25T00:44:54.131Z,9.7
2022-08-25T00:45:54.158Z,9.8
2022-08-25T00:46:54.137Z,9.7
2022-08-25T00:47:54.172Z,9.7
2022-08-25T00:48:54.151Z,9.7
2022-08-25T00:49:54.134Z,9.7
2022-08-25T00:50:54.145Z,9.7
2022-08-25T00:51:54.149Z,9.7
2022-08-25T00:52:54.141Z,9.7
2022-08-25T00:53:54.142Z,9.7
2022-08-25T00:54:54.150Z,9.7
2022-08-25T00:55:54.145Z,9.7
2022-08-25T00:56:54.135Z,9.5
2022-08-25T00:57:54.146Z,9.1
2022-08-25T00:58:54.141Z,9.7
2022-08-25T00:59:54.212Z,9.7
2022-08-25T01:00:54.138Z,9.7
2022-08-25T01:01:54.264Z,9.5
2022-08-25T01:02:54.199Z,9.6
2022-08-25T01:03:54.139Z,9.6
2022-08-25T01:04:54.145Z,9.6
2022-08-25T01:05:54.149Z,9.6
2022-08-25T01:06:54.145Z,9.6
2022-08-25T01:07:54.172Z,9.7
2022-08-25T01:08:54.142Z,9.6
2022-08-25T01:09:54.150Z,9.1
2022-08-25T01:10:54.155Z,9.6
2022-08-25T01:11:54.176Z,9.2
2022-08-25T01:12:54.143Z,8.9
2022-08-25T01:13:54.210Z,9.1
2022-08-25T01:14:54.157Z,8.9
2022-08-25T01:15:54.225Z,9.5
2022-08-25T01:16:54.223Z,9.5
2022-08-25T01:17:54.162Z,9.5
2022-08-25T01:18:54.160Z,9.6
2022-08-25T01:19:54.158Z,9.6
2022-08-25T01:20:54.137Z,9.5
2022-08-25T01:21:54.166Z,9.6
2022-08-25T01:22:55.417Z,9.5
2022-08-25T01:23:54.140Z,9.6
2022-08-25T01:24:54.141Z,9.6
2022-08-25T01:25:54.210Z,9.6
2022-08-25T01:26:54.160Z,9.6
2022-08-25T01:27:54.172Z,9.6
2022-08-25T01:28:54.155Z,9.6
2022-08-25T01:29:54.170Z,9.6
2022-08-25T01:30:54.303Z,9.6
2022-08-25T01:31:54.162Z,9.6
2022-08-25T01:32:54.156Z,9.4
2022-08-25T01:33:54.175Z,9.6
2022-08-25T01:34:54.159Z,9.7
2022-08-25T01:35:54.168Z,9.7
2022-08-25T01:36:54.152Z,9.7
2022-08-25T01:37:54.184Z,9.6
2022-08-25T01:38:54.162Z,9.7
2022-08-25T01:39:54.231Z,9.7
2022-08-25T01:40:54.148Z,9.7
2022-08-25T01:41:54.153Z,9.7
2022-08-25T01:42:54.169Z,9.6
2022-08-25T01:43:54.159Z,9.7
2022-08-25T01:44:54.186Z,9.5
2022-08-25T01:45:54.223Z,9.7
2022-08-25T01:46:54.164Z,9.7
2022-08-25T01:47:54.158Z,9.7
2022-08-25T01:48:54.156Z,9.3
2022-08-25T01:49:54.170Z,9.7
2022-08-25T01:50:54.165Z,9.6
2022-08-25T01:51:54.162Z,9.7
2022-08-25T01:52:54.156Z,9.7
2022-08-25T01:53:54.168Z,9.6
2022-08-25T01:54:54.162Z,9.6
2022-08-25T01:55:54.353Z,9.6
2022-08-25T01:56:54.150Z,9.6
2022-08-25T01:57:54.163Z,9.7
2022-08-25T01:58:54.173Z,9.6
2022-08-25T01:59:54.170Z,9.6
2022-08-25T02:00:54.166Z,9.6
2022-08-25T02:01:59.699Z,9.6
2022-08-25T02:02:55.431Z,9.7
2022-08-25T02:03:54.171Z,9.7
2022-08-25T02:04:54.154Z,9.6
2022-08-25T02:05:54.183Z,9.7
2022-08-25T02:06:54.168Z,9.6
2022-08-25T02:07:54.173Z,9.6
2022-08-25T02:08:54.167Z,9.6
2022-08-25T02:09:54.169Z,9.6
2022-08-25T02:10:54.171Z,9.6
2022-08-25T02:11:54.158Z,9.7
2022-08-25T02:12:54.292Z,9.7
2022-08-25T02:13:54.192Z,9.6
2022-08-25T02:14:54.168Z,9.6
2022-08-25T02:15:54.162Z,9.6
2022-08-25T02:16:54.266Z,9.6
2022-08-25T02:17:54.164Z,9.6
2022-08-25T02:18:54.195Z,9.6
2022-08-25T02:19:54.172Z,9.6
2022-08-25T02:20:54.171Z,9.7
2022-08-25T02:21:54.163Z,9.6
2022-08-25T02:22:57.055Z,9.7
2022-08-25T02:23:54.198Z,9.7
2022-08-25T02:24:54.176Z,9.6
2022-08-25T02:25:54.177Z,9.7
2022-08-25T02:26:54.181Z,9.6
2022-08-25T02:27:54.176Z,9.6
2022-08-25T02:28:54.200Z,9.6
2022-08-25T02:29:54.186Z,9.7
2022-08-25T02:31:00.161Z,9.7
2022-08-25T02:31:54.203Z,9.6
2022-08-25T02:32:54.177Z,9.6
2022-08-25T02:33:54.206Z,9.7
2022-08-25T02:34:54.195Z,9.6
2022-08-25T02:35:54.163Z,9.7
2022-08-25T02:36:54.169Z,9.6
2022-08-25T02:37:54.606Z,9.7
2022-08-25T02:38:54.201Z,9.6
2022-08-25T02:39:54.255Z,9.6
2022-08-25T02:40:54.177Z,9.7
2022-08-25T02:41:54.207Z,9.6
2022-08-25T02:42:54.194Z,9.7
2022-08-25T02:43:54.191Z,9.6
2022-08-25T02:44:54.172Z,9.7
2022-08-25T02:45:54.271Z,9.7
2022-08-25T02:46:54.204Z,9.7
2022-08-25T02:47:54.222Z,9.7
2022-08-25T02:48:54.226Z,9.7
2022-08-25T02:49:54.187Z,9.7
2022-08-25T02:50:54.177Z,9.7
2022-08-25T02:51:54.178Z,9.7
2022-08-25T02:52:54.273Z,9.7
2022-08-25T02:53:54.231Z,9.7
2022-08-25T02:54:54.171Z,9.7
2022-08-25T02:55:54.188Z,9.6
2022-08-25T02:56:54.197Z,9.7
2022-08-25T02:57:54.187Z,9.7
2022-08-25T02:58:54.191Z,9.7
2022-08-25T02:59:54.188Z,9.7
2022-08-25T03:00:54.246Z,9.7
2022-08-25T03:01:54.203Z,9.7
2022-08-25T03:02:54.186Z,9.7
2022-08-25T03:03:54.296Z,9.7
2022-08-25T03:04:55.151Z,9.7
2022-08-25T03:05:54.185Z,9.7
2022-08-25T03:06:54.185Z,9.7
2022-08-25T03:07:54.192Z,9.7
2022-08-25T03:08:54.224Z,9.7
2022-08-25T03:09:54.196Z,9.6
2022-08-25T03:10:54.185Z,9.7
2022-08-25T03:11:54.191Z,9.7
2022-08-25T03:12:54.206Z,9.7
2022-08-25T03:13:54.225Z,9.7
2022-08-25T03:14:54.207Z,9.7
2022-08-25T03:15:54.197Z,9.7
2022-08-25T03:16:54.301Z,9.6
2022-08-25T03:17:54.206Z,9.6
2022-08-25T03:18:54.210Z,9.7
2022-08-25T03:19:54.227Z,9.6
2022-08-25T03:20:54.202Z,9.7
2022-08-25T03:21:54.216Z,9.6
2022-08-25T03:22:54.197Z,9.6
2022-08-25T03:23:54.222Z,9.7
2022-08-25T03:24:54.212Z,9.6
2022-08-25T03:25:54.192Z,9.7
2022-08-25T03:26:54.218Z,9.6
2022-08-25T03:27:54.212Z,9.6
2022-08-25T03:28:54.269Z,9.7
2022-08-25T03:29:54.208Z,9.7
2022-08-25T03:30:56.175Z,9.6
2022-08-25T03:31:54.291Z,9.6
2022-08-25T03:32:54.212Z,9.7
2022-08-25T03:33:54.224Z,9.6
2022-08-25T03:34:54.206Z,9.7
2022-08-25T03:35:54.219Z,9.7
2022-08-25T03:36:54.230Z,9.5
2022-08-25T03:37:54.189Z,9.6
2022-08-25T03:38:54.245Z,9.4
2022-08-25T03:39:54.262Z,9.3
2022-08-25T03:40:54.213Z,9.3
2022-08-25T03:41:54.208Z,9.4
2022-08-25T03:42:54.202Z,9.5
2022-08-25T03:43:54.229Z,9.4
2022-08-25T03:44:54.223Z,9.5
2022-08-25T03:45:54.284Z,9.5
2022-08-25T03:46:54.267Z,9.5
2022-08-25T03:47:54.245Z,9.5
2022-08-25T03:48:54.215Z,9.5
2022-08-25T03:49:54.231Z,9.4
2022-08-25T03:50:54.275Z,9.5
2022-08-25T03:51:54.220Z,9.5
2022-08-25T03:52:54.212Z,9.5
2022-08-25T03:53:54.236Z,9.5
2022-08-25T03:54:54.202Z,9.5
2022-08-25T03:55:54.197Z,9.5
2022-08-25T03:56:54.217Z,9.5
2022-08-25T03:57:54.227Z,9.6
2022-08-25T03:58:54.248Z,9.5
2022-08-25T03:59:54.209Z,9.6
2022-08-25T04:00:54.267Z,9.6
2022-08-25T04:01:55.553Z,9.5
2022-08-25T04:02:54.219Z,9.6
2022-08-25T04:03:54.234Z,9.4
2022-08-25T04:04:54.327Z,9.5
2022-08-25T04:05:54.192Z,9.5
2022-08-25T04:06:54.224Z,9.6
2022-08-25T04:07:54.227Z,9.5
2022-08-25T04:08:54.247Z,9.6
2022-08-25T04:09:54.206Z,9.5
2022-08-25T04:10:54.224Z,9.5
2022-08-25T04:11:54.213Z,9.6
2022-08-25T04:12:54.206Z,9.5
2022-08-25T04:13:54.232Z,9.6
2022-08-25T04:14:54.227Z,9.6
2022-08-25T04:15:54.207Z,9.6
2022-08-25T04:16:54.322Z,9.6
2022-08-25T04:17:54.226Z,9.5
2022-08-25T04:18:54.237Z,9.6
2022-08-25T04:19:54.209Z,9.6
2022-08-25T04:20:54.221Z,9.6
2022-08-25T04:21:56.785Z,9.6
2022-08-25T04:22:54.206Z,9.5
2022-08-25T04:23:54.225Z,9.5
2022-08-25T04:24:54.215Z,9.6
2022-08-25T04:25:54.242Z,9.6
2022-08-25T04:26:54.241Z,9.6
2022-08-25T04:27:54.210Z,9.6
2022-08-25T04:28:54.248Z,9.6
2022-08-25T04:29:54.205Z,9.5
2022-08-25T04:30:54.216Z,9.6
2022-08-25T04:31:54.348Z,9.6
2022-08-25T04:32:54.226Z,9.6
2022-08-25T04:33:54.235Z,9.7
2022-08-25T04:34:54.227Z,9.7
2022-08-25T04:35:54.223Z,9.7
2022-08-25T04:36:54.265Z,9.8
2022-08-25T04:37:54.230Z,9.8
2022-08-25T04:38:54.285Z,9.8
2022-08-25T04:39:54.277Z,9.7
2022-08-25T04:40:54.218Z,9.8
2022-08-25T04:41:54.215Z,9.7
2022-08-25T04:42:54.227Z,9.7
2022-08-25T04:43:54.240Z,9.7
2022-08-25T04:44:54.216Z,9.7
2022-08-25T04:45:54.273Z,9.7
2022-08-25T04:46:54.249Z,9.8
2022-08-25T04:47:55.089Z,9.8
2022-08-25T04:48:54.235Z,9.6
2022-08-25T04:49:54.357Z,9.7
2022-08-25T04:50:54.278Z,9.7
2022-08-25T04:51:54.215Z,9.7
2022-08-25T04:52:54.248Z,9.8
2022-08-25T04:53:54.237Z,9.7
2022-08-25T04:54:54.216Z,9.8
2022-08-25T04:55:54.214Z,9.7
2022-08-25T04:56:58.759Z,9.7
2022-08-25T04:57:54.213Z,9.8
2022-08-25T04:58:54.247Z,9.7
2022-08-25T04:59:54.229Z,9.7
2022-08-25T05:00:54.318Z,9.7
2022-08-25T05:01:55.210Z,9.7
2022-08-25T05:02:54.227Z,9.7
2022-08-25T05:03:54.334Z,9.7
2022-08-25T05:04:54.222Z,9.7
2022-08-25T05:05:54.237Z,9.7
2022-08-25T05:06:54.232Z,9.8
2022-08-25T05:07:54.242Z,9.8
2022-08-25T05:08:54.251Z,9.7
2022-08-25T05:09:54.230Z,9.8
2022-08-25T05:10:54.230Z,9.8
2022-08-25T05:11:54.223Z,9.8
2022-08-25T05:12:54.250Z,9.8
2022-08-25T05:13:54.260Z,9.8
2022-08-25T05:14:54.223Z,9.8
2022-08-25T05:15:54.233Z,9.8
2022-08-25T05:16:54.237Z,9.8
2022-08-25T05:17:56.089Z,9.8
2022-08-25T05:18:54.252Z,9.8
2022-08-25T05:19:54.239Z,9.8
2022-08-25T05:20:54.234Z,9.8
2022-08-25T05:21:54.455Z,9.8
2022-08-25T05:22:54.240Z,9.8
2022-08-25T05:23:54.246Z,9.8
2022-08-25T05:24:54.243Z,9.8
2022-08-25T05:25:54.249Z,9.9
2022-08-25T05:26:54.257Z,9.8
2022-08-25T05:27:54.236Z,9.9
2022-08-25T05:28:54.285Z,9.8
2022-08-25T05:29:54.242Z,9.9
2022-08-25T05:30:54.232Z,9.9
2022-08-25T05:31:54.419Z,9.9
2022-08-25T05:32:54.250Z,9.9
2022-08-25T05:33:54.253Z,9.9
2022-08-25T05:34:54.238Z,9.8
2022-08-25T05:35:54.238Z,10
2022-08-25T05:36:54.262Z,10
2022-08-25T05:37:54.240Z,9.9
2022-08-25T05:38:54.259Z,9.9
2022-08-25T05:39:54.303Z,9.9
2022-08-25T05:40:54.233Z,9.9
2022-08-25T05:41:54.255Z,9.9
2022-08-25T05:42:54.245Z,9.9
2022-08-25T05:43:54.343Z,9.9
2022-08-25T05:44:54.253Z,10
2022-08-25T05:45:54.314Z,10.1
2022-08-25T05:46:54.237Z,9.9
2022-08-25T05:47:54.238Z,9.9
2022-08-25T05:48:54.255Z,9.9
2022-08-25T05:49:54.249Z,9.9
2022-08-25T05:50:54.235Z,10.2
2022-08-25T05:51:54.245Z,10
2022-08-25T05:52:54.258Z,9.9
2022-08-25T05:53:54.260Z,10
2022-08-25T05:54:54.253Z,10
2022-08-25T05:55:54.253Z,10.2
2022-08-25T05:56:54.267Z,10.1
2022-08-25T05:57:54.248Z,10.2
2022-08-25T05:58:54.256Z,10.2
2022-08-25T05:59:54.251Z,10.2
2022-08-25T06:00:54.366Z,10.2
2022-08-25T06:02:01.168Z,10.1
2022-08-25T06:02:54.237Z,10.1
2022-08-25T06:03:54.544Z,10
2022-08-25T06:04:54.253Z,10.3
2022-08-25T06:05:54.242Z,10.2
2022-08-25T06:06:54.253Z,10.2
2022-08-25T06:07:54.310Z,10.2
2022-08-25T06:08:54.264Z,10.3
2022-08-25T06:09:54.246Z,10.2
2022-08-25T06:10:54.246Z,10.1
2022-08-25T06:11:55.357Z,10.4
2022-08-25T06:12:54.252Z,10.3
2022-08-25T06:13:54.273Z,10.3
2022-08-25T06:14:54.261Z,10.4
2022-08-25T06:15:54.290Z,10.4
2022-08-25T06:16:54.254Z,10.4
2022-08-25T06:17:58.969Z,10.2
2022-08-25T06:18:54.301Z,10.2
2022-08-25T06:19:54.252Z,10.4
2022-08-25T06:20:54.254Z,10.1
2022-08-25T06:21:54.266Z,10.3
2022-08-25T06:22:54.256Z,10.4
2022-08-25T06:23:54.290Z,10.4
2022-08-25T06:24:54.269Z,10.4
2022-08-25T06:25:54.252Z,10.4
2022-08-25T06:26:54.257Z,10.4
2022-08-25T06:27:54.262Z,10.5
2022-08-25T06:28:54.268Z,10.2
2022-08-25T06:29:56.014Z,10.4
2022-08-25T06:30:54.251Z,10.3
2022-08-25T06:31:54.368Z,10.5
2022-08-25T06:32:54.255Z,10.5
2022-08-25T06:33:54.299Z,10.1
2022-08-25T06:34:54.256Z,10.5
2022-08-25T06:35:54.278Z,10.5
2022-08-25T06:36:54.245Z,10.6
2022-08-25T06:37:54.286Z,10.5
2022-08-25T06:38:54.288Z,10.5
2022-08-25T06:39:54.342Z,10.6
2022-08-25T06:40:54.248Z,10.5
2022-08-25T06:41:54.267Z,10.6
2022-08-25T06:42:54.277Z,10.6
2022-08-25T06:43:56.043Z,10.5
2022-08-25T06:44:54.269Z,10.6
2022-08-25T06:45:54.278Z,10.6
2022-08-25T06:46:54.374Z,10.6
2022-08-25T06:47:54.263Z,10.7
2022-08-25T06:48:54.268Z,10.6
2022-08-25T06:49:54.262Z,10.6
2022-08-25T06:50:54.264Z,10.6
2022-08-25T06:51:54.266Z,10.7
2022-08-25T06:52:54.256Z,10.4
2022-08-25T06:53:54.286Z,10.7
2022-08-25T06:54:54.264Z,10.7
2022-08-25T06:55:54.277Z,10.6
2022-08-25T06:56:54.271Z,10.7
2022-08-25T06:57:55.084Z,10.7
2022-08-25T06:58:54.303Z,10.7
2022-08-25T06:59:54.258Z,10.3
2022-08-25T07:00:54.354Z,10.5
2022-08-25T07:01:49.643Z,10.8
2022-08-25T07:02:54.267Z,10.7
2022-08-25T07:03:54.331Z,10.7
2022-08-25T07:04:54.301Z,10.4
2022-08-25T07:05:54.285Z,10.4
2022-08-25T07:06:54.293Z,10.8
2022-08-25T07:07:54.458Z,10.8
2022-08-25T07:08:54.320Z,10.9
2022-08-25T07:09:54.283Z,10.8
2022-08-25T07:10:54.274Z,10.9
2022-08-25T07:11:54.277Z,10.8
2022-08-25T07:12:54.299Z,10.6
2022-08-25T07:13:54.305Z,10.4
2022-08-25T07:15:10.221Z,10.7
2022-08-25T07:15:54.353Z,10.6
2022-08-25T07:16:54.275Z,10.5
2022-08-25T07:17:54.283Z,10.6
2022-08-25T07:18:54.300Z,10.6
2022-08-25T07:19:57.594Z,10.6
2022-08-25T07:20:54.272Z,10.5
2022-08-25T07:21:54.390Z,10.8
2022-08-25T07:22:54.276Z,10.8
2022-08-25T07:23:54.307Z,10.9
2022-08-25T07:24:54.289Z,10.5
2022-08-25T07:25:54.277Z,10.5
2022-08-25T07:26:54.288Z,10.4
2022-08-25T07:27:58.596Z,10.4
2022-08-25T07:28:54.306Z,10.6
2022-08-25T07:29:54.283Z,10.5
2022-08-25T07:30:54.272Z,10.5
2022-08-25T07:31:54.389Z,10.7
2022-08-25T07:32:55.488Z,10.6
2022-08-25T07:33:54.307Z,11
2022-08-25T07:34:54.280Z,10.6
2022-08-25T07:35:54.298Z,11
2022-08-25T07:36:54.281Z,10.7
2022-08-25T07:37:54.285Z,10.7
2022-08-25T07:38:54.299Z,11.1
2022-08-25T07:39:54.323Z,11
2022-08-25T07:40:54.281Z,11
2022-08-25T07:41:54.284Z,11
2022-08-25T07:42:54.321Z,11
2022-08-25T07:43:54.316Z,10.9
2022-08-25T07:44:54.285Z,11
2022-08-25T07:45:54.298Z,10.9
2022-08-25T07:46:54.343Z,10.8
2022-08-25T07:47:54.277Z,11.1
2022-08-25T07:48:54.289Z,10.8
2022-08-25T07:49:54.309Z,10.8
2022-08-25T07:50:54.284Z,10.7
2022-08-25T07:52:05.497Z,10.7
2022-08-25T07:52:54.963Z,10.7
2022-08-25T07:53:54.339Z,10.8
2022-08-25T07:54:54.285Z,11.1
2022-08-25T07:55:54.355Z,10.9
2022-08-25T07:56:54.305Z,10.8
2022-08-25T07:57:57.113Z,11
2022-08-25T07:58:54.313Z,11.1
2022-08-25T07:59:54.351Z,10.8
2022-08-25T08:00:54.297Z,11
2022-08-25T08:01:54.391Z,11.2
2022-08-25T08:02:54.378Z,11
2022-08-25T08:03:54.392Z,10.9
2022-08-25T08:04:54.291Z,11.1
2022-08-25T08:05:54.302Z,11.2
2022-08-25T08:06:54.344Z,11
2022-08-25T08:07:54.301Z,11
2022-08-25T08:08:55.652Z,11.2
2022-08-25T08:10:18.957Z,11
2022-08-25T08:11:04.203Z,11.1
2022-08-25T08:11:54.549Z,11.4
2022-08-25T08:12:54.296Z,11.4
2022-08-25T08:13:54.335Z,11.1
2022-08-25T08:14:54.306Z,11.4
2022-08-25T08:15:54.347Z,11.2
2022-08-25T08:16:54.378Z,11.2
2022-08-25T08:17:54.309Z,11.2
2022-08-25T08:18:54.322Z,11.2
2022-08-25T08:19:54.306Z,11.2
2022-08-25T08:20:54.321Z,11.2
2022-08-25T08:21:54.351Z,11
2022-08-25T08:22:54.299Z,11.1
2022-08-25T08:23:58.209Z,11
2022-08-25T08:24:56.370Z,10.9
2022-08-25T08:25:54.309Z,11.3
2022-08-25T08:26:59.058Z,11.4
2022-08-25T08:27:55.066Z,11.2
2022-08-25T08:28:54.382Z,11.3
2022-08-25T08:29:54.318Z,11.5
2022-08-25T08:30:54.409Z,11.2
2022-08-25T08:31:54.385Z,11
2022-08-25T08:33:09.154Z,11.2
2022-08-25T08:33:54.395Z,11.1
2022-08-25T08:34:54.318Z,11.2
2022-08-25T08:35:54.309Z,11.2
2022-08-25T08:36:54.297Z,11.3
2022-08-25T08:37:54.332Z,11.4
2022-08-25T08:38:54.312Z,11.2
2022-08-25T08:39:54.341Z,11.2
2022-08-25T08:40:54.354Z,11.2
2022-08-25T08:42:11.225Z,11.3
2022-08-25T08:42:54.312Z,11.1
2022-08-25T08:43:54.360Z,11.3
2022-08-25T08:44:56.063Z,11.3
2022-08-25T08:45:54.340Z,11.2
2022-08-25T08:46:54.407Z,11.3
2022-08-25T08:47:54.313Z,11.4
2022-08-25T08:48:54.342Z,11.4
2022-08-25T08:49:54.332Z,11.3
2022-08-25T08:50:54.313Z,11.2
2022-08-25T08:51:54.321Z,11.4
2022-08-25T08:52:54.320Z,11.3
2022-08-25T08:53:54.328Z,11.5
2022-08-25T08:54:54.325Z,11.3
2022-08-25T08:55:54.301Z,11.6
2022-08-25T08:56:54.322Z,11.5
2022-08-25T08:57:54.586Z,11.3
2022-08-25T08:58:54.348Z,11.4
2022-08-25T08:59:54.318Z,11.2
2022-08-25T09:00:54.314Z,11.2
2022-08-25T09:01:54.536Z,11.5
2022-08-25T09:02:54.382Z,11.3
2022-08-25T09:03:54.992Z,11.4
2022-08-25T09:04:54.319Z,11.2
2022-08-25T09:05:54.337Z,11.2
2022-08-25T09:06:54.323Z,11.3
2022-08-25T09:07:55.016Z,11.6
2022-08-25T09:08:54.345Z,11.4
2022-08-25T09:09:54.343Z,11.4
2022-08-25T09:10:54.328Z,11.4
2022-08-25T09:11:54.321Z,11.4
2022-08-25T09:13:54.380Z,11.4
2022-08-25T09:14:54.418Z,11.5
2022-08-25T09:15:54.764Z,11.4
2022-08-25T09:16:54.348Z,11.3
2022-08-25T09:17:55.005Z,11.7
2022-08-25T09:18:54.339Z,11.7
2022-08-25T09:19:54.322Z,11.5
2022-08-25T09:20:54.342Z,11.7
2022-08-25T09:21:54.398Z,11.2
2022-08-25T09:22:54.325Z,11.3
2022-08-25T09:23:54.362Z,11.3
2022-08-25T09:24:54.334Z,11.5
2022-08-25T09:25:54.498Z,11.3
2022-08-25T09:26:54.418Z,11.4
2022-08-25T09:27:54.323Z,11.4
2022-08-25T09:28:54.352Z,11.5
2022-08-25T09:29:54.337Z,11.5
2022-08-25T09:30:54.393Z,11.4
2022-08-25T09:31:54.336Z,11.4
2022-08-25T09:32:54.337Z,11.4
2022-08-25T09:33:54.346Z,11.5
2022-08-25T09:34:54.330Z,11.4
2022-08-25T09:35:54.342Z,11.5
2022-08-25T09:36:54.335Z,11.4
2022-08-25T09:37:54.333Z,11.4
2022-08-25T09:38:54.369Z,11.3
2022-08-25T09:39:54.369Z,11.1
2022-08-25T09:40:54.352Z,11.4
2022-08-25T09:41:54.326Z,11.1
2022-08-25T09:42:57.851Z,11.3
2022-08-25T09:43:54.373Z,11
2022-08-25T09:44:54.357Z,11.2
2022-08-25T09:45:54.388Z,11.2
2022-08-25T09:46:54.338Z,11.3
2022-08-25T09:47:54.337Z,11.3
2022-08-25T09:48:56.804Z,11.2
2022-08-25T09:49:54.327Z,11.3
2022-08-25T09:50:54.349Z,11.2
2022-08-25T09:51:54.338Z,11.3
2022-08-25T09:52:54.333Z,11.2
2022-08-25T09:53:54.415Z,11.2
2022-08-25T09:54:54.344Z,11.4
2022-08-25T09:55:59.860Z,11.4
2022-08-25T09:56:54.336Z,11.3
2022-08-25T09:57:54.357Z,11.1
2022-08-25T09:58:54.367Z,10.9
2022-08-25T09:59:57.470Z,11.1
2022-08-25T10:00:54.393Z,11.2
2022-08-25T10:01:54.402Z,11.2
2022-08-25T10:02:54.342Z,11
2022-08-25T10:03:54.389Z,11.1
2022-08-25T10:04:54.387Z,11
2022-08-25T10:05:56.339Z,11
2022-08-25T10:07:54.349Z,11.2
2022-08-25T10:08:54.363Z,11
2022-08-25T10:09:54.358Z,10.9
2022-08-25T10:10:54.338Z,11.1
2022-08-25T10:11:57.676Z,11.3
2022-08-25T10:12:54.354Z,11.2
2022-08-25T10:13:54.423Z,11.3
2022-08-25T10:14:54.352Z,11.3
2022-08-25T10:15:54.432Z,11.3
2022-08-25T10:16:54.362Z,11.3
2022-08-25T10:17:54.349Z,11.1
2022-08-25T10:18:54.374Z,10.9
2022-08-25T10:19:54.359Z,11
2022-08-25T10:20:54.361Z,11.1
2022-08-25T10:21:54.354Z,11.2
2022-08-25T10:22:54.360Z,11.2
2022-08-25T10:23:54.381Z,11.3
2022-08-25T10:24:54.347Z,11.1
2022-08-25T10:25:57.609Z,11.1
2022-08-25T10:26:54.363Z,11
2022-08-25T10:27:54.356Z,11.2
2022-08-25T10:28:54.420Z,10.8
2022-08-25T10:29:54.374Z,10.9
2022-08-25T10:30:54.409Z,11
2022-08-25T10:31:54.358Z,10.7
2022-08-25T10:32:54.384Z,10.8
2022-08-25T10:33:54.388Z,11.1
2022-08-25T10:34:54.364Z,11.2
2022-08-25T10:35:54.376Z,10.9
2022-08-25T10:36:56.026Z,10.8
2022-08-25T10:37:54.375Z,10.8
2022-08-25T10:38:54.369Z,10.9
2022-08-25T10:39:54.830Z,10.9
2022-08-25T10:40:54.365Z,10.8
2022-08-25T10:41:54.417Z,10.9
2022-08-25T10:42:54.366Z,10.7
2022-08-25T10:43:54.382Z,10.7
2022-08-25T10:44:54.386Z,10.8
2022-08-25T10:45:54.454Z,11
2022-08-25T10:46:54.361Z,11.1
2022-08-25T10:47:54.380Z,11.4
2022-08-25T10:48:54.384Z,11.1
2022-08-25T10:49:54.366Z,11.1
2022-08-25T10:50:54.363Z,11.2
2022-08-25T10:51:54.420Z,11.1
2022-08-25T10:52:54.383Z,11.1
2022-08-25T10:53:54.391Z,10.7
2022-08-25T10:54:54.880Z,10.8
2022-08-25T10:55:54.368Z,10.7
2022-08-25T10:56:57.436Z,10.6
2022-08-25T10:57:54.361Z,11
2022-08-25T10:59:54.377Z,10.9
2022-08-25T11:00:54.621Z,11.1
2022-08-25T11:01:54.396Z,10.9
2022-08-25T11:02:54.380Z,11
2022-08-25T11:03:54.424Z,10.7
2022-08-25T11:04:54.690Z,10.8
2022-08-25T11:05:54.373Z,10.5
2022-08-25T11:06:54.570Z,10.6
2022-08-25T11:07:54.376Z,10.6
2022-08-25T11:08:54.416Z,10.7
2022-08-25T11:09:54.384Z,10.6
2022-08-25T11:10:54.392Z,10.8
2022-08-25T11:11:54.391Z,10.7
2022-08-25T11:12:54.408Z,10.9
2022-08-25T11:13:54.444Z,10.9
2022-08-25T11:14:54.472Z,10.8
2022-08-25T11:16:15.854Z,10.6
2022-08-25T11:16:54.665Z,10.7
2022-08-25T11:17:54.590Z,10.9
2022-08-25T11:18:54.378Z,10.9
2022-08-25T11:19:54.388Z,11
2022-08-25T11:20:54.470Z,11
2022-08-25T11:21:54.409Z,11.3
2022-08-25T11:22:54.394Z,11.1
2022-08-25T11:23:54.424Z,11
2022-08-25T11:24:54.390Z,11.1
2022-08-25T11:25:54.410Z,11.3
2022-08-25T11:26:54.395Z,11.1
2022-08-25T11:27:54.404Z,10.7
2022-08-25T11:28:54.400Z,10.8
2022-08-25T11:29:54.386Z,10.8
2022-08-25T11:30:54.425Z,10.7
2022-08-25T11:31:54.396Z,10.5
2022-08-25T11:32:54.419Z,10.4
2022-08-25T11:33:54.376Z,10.4
2022-08-25T11:34:54.453Z,10.5
2022-08-25T11:35:54.400Z,10.8
2022-08-25T11:36:54.404Z,10.6
2022-08-25T11:37:54.388Z,10.9
2022-08-25T11:38:54.407Z,10.8
2022-08-25T11:39:54.467Z,10.7
2022-08-25T11:40:54.389Z,10.8
2022-08-25T11:41:54.393Z,11
2022-08-25T11:42:54.391Z,10.9
2022-08-25T11:43:54.384Z,10.9
2022-08-25T11:44:55.128Z,10.8
2022-08-25T11:45:54.797Z,10.9
2022-08-25T11:46:54.446Z,10.8
2022-08-25T11:47:54.395Z,10.9
2022-08-25T11:48:54.398Z,10.8
2022-08-25T11:49:54.403Z,10.7
2022-08-25T11:50:54.407Z,10.7
2022-08-25T11:51:54.419Z,10.7
2022-08-25T11:52:54.399Z,10.5
2022-08-25T11:53:54.398Z,10.6
2022-08-25T11:54:54.404Z,10.7
2022-08-25T11:55:54.426Z,10.4
2022-08-25T11:56:54.393Z,10.5
2022-08-25T11:57:54.397Z,10.6
2022-08-25T11:58:54.420Z,10.6
2022-08-25T11:59:54.414Z,10.6
2022-08-25T12:00:54.401Z,10.7
2022-08-25T12:01:54.401Z,10.6
2022-08-25T12:02:55.730Z,10.7
2022-08-25T12:03:54.532Z,10.5
2022-08-25T12:04:54.514Z,10.6
2022-08-25T12:05:54.402Z,10.6
2022-08-25T12:06:54.405Z,10.5
2022-08-25T12:07:54.408Z,10.7
2022-08-25T12:08:54.476Z,10.7
2022-08-25T12:09:54.402Z,10.4
2022-08-25T12:10:54.403Z,10.2
2022-08-25T12:12:54.397Z,10.8
2022-08-25T12:13:54.424Z,10.5
2022-08-25T12:14:54.411Z,10.4
2022-08-25T12:15:54.406Z,10.5
2022-08-25T12:16:54.453Z,10.6
2022-08-25T12:17:54.419Z,10.6
2022-08-25T12:18:54.415Z,10.7
2022-08-25T12:19:54.404Z,10.2
2022-08-25T12:20:54.416Z,10.5
2022-08-25T12:21:54.418Z,10.5
2022-08-25T12:22:54.450Z,10.6
2022-08-25T12:23:54.424Z,10.5
2022-08-25T12:24:54.431Z,10.2
2022-08-25T12:25:54.433Z,10.3
2022-08-25T12:26:54.408Z,10.4
2022-08-25T12:27:54.486Z,10.2
2022-08-25T12:28:54.418Z,10
2022-08-25T12:29:54.443Z,10
2022-08-25T12:30:54.529Z,10
2022-08-25T12:31:54.437Z,10.1
2022-08-25T12:32:54.479Z,10.2
2022-08-25T12:33:54.411Z,10.4
2022-08-25T12:34:54.435Z,10.3
2022-08-25T12:35:54.450Z,10.5
2022-08-25T12:36:54.422Z,10.3
2022-08-25T12:37:54.426Z,10.3
2022-08-25T12:38:54.529Z,10.2
2022-08-25T12:39:54.489Z,10
2022-08-25T12:40:54.419Z,10.2
2022-08-25T12:41:54.515Z,10.3
2022-08-25T12:42:54.433Z,10.2
2022-08-25T12:43:54.549Z,10.1
2022-08-25T12:44:54.429Z,10.1
2022-08-25T12:45:54.498Z,10.1
2022-08-25T12:46:54.446Z,10.1
2022-08-25T12:47:54.417Z,10.1
2022-08-25T12:48:54.444Z,10.1
2022-08-25T12:49:54.436Z,10.1
2022-08-25T12:50:54.428Z,10
2022-08-25T12:51:54.430Z,10
2022-08-25T12:52:54.442Z,10
2022-08-25T12:53:54.435Z,10
2022-08-25T12:54:54.440Z,9.9
2022-08-25T12:55:54.454Z,10
2022-08-25T12:56:54.492Z,10
2022-08-25T12:57:54.441Z,10
2022-08-25T12:59:01.011Z,10.2
2022-08-25T12:59:54.432Z,10
2022-08-25T13:00:55.852Z,9.9
2022-08-25T13:01:54.881Z,9.8
2022-08-25T13:02:54.558Z,9.8
2022-08-25T13:03:54.443Z,9.7
2022-08-25T13:04:54.430Z,9.7
2022-08-25T13:05:54.442Z,9.7
2022-08-25T13:06:54.438Z,9.6
2022-08-25T13:07:54.461Z,9.8
2022-08-25T13:08:54.448Z,9.7
2022-08-25T13:09:54.446Z,9.7
2022-08-25T13:10:54.441Z,9.9
2022-08-25T13:11:54.436Z,9.8
2022-08-25T13:12:54.454Z,10.1
2022-08-25T13:13:54.514Z,9.9
2022-08-25T13:14:54.446Z,9.9
2022-08-25T13:15:54.915Z,9.7
2022-08-25T13:16:54.534Z,9.9
2022-08-25T13:17:54.450Z,9.9
2022-08-25T13:18:54.469Z,9.6
2022-08-25T13:19:54.454Z,9.6
2022-08-25T13:21:54.759Z,9.7
2022-08-25T13:22:57.565Z,9.8
2022-08-25T13:23:54.443Z,9.7
2022-08-25T13:24:54.497Z,10
2022-08-25T13:25:54.447Z,9.8
2022-08-25T13:26:54.454Z,9.8
2022-08-25T13:27:54.489Z,9.6
2022-08-25T13:28:54.479Z,9.5
2022-08-25T13:29:54.435Z,9.6
2022-08-25T13:30:54.449Z,9.6
2022-08-25T13:31:54.472Z,9.7
2022-08-25T13:32:54.594Z,9.8
2022-08-25T13:33:54.741Z,9.8
2022-08-25T13:34:54.467Z,9.9
2022-08-25T13:35:54.484Z,9.8
2022-08-25T13:36:58.834Z,10
2022-08-25T13:37:54.450Z,10
2022-08-25T13:38:54.461Z,9.8
2022-08-25T13:39:56.405Z,9.8